sensor_id;sensor_type;location;lat;lon;timestamp;P1;durP1;ratioP1;P2;durP2;ratioP2
16468;SDS011;8345;50.902;6.956;2023-12-20T00:02:16;6.77;;;6.17;;
16468;SDS011;8345;50.902;6.956;2023-12-20T00:04:44;6.77;;;6.17;;
16468;SDS011;8345;50.902;6.956;2023-12-20T00:07:11;6.37;;;5.77;;
16468;SDS011;8345;50.902;6.956;2023-12-20T00:09:38;6.87;;;6.27;;
16468;SDS011;8345;50.902;6.956;2023-12-20T00:12:06;7.50;;;6.80;;
16468;SDS011;8345;50.902;6.956;2023-12-20T00:14:33;7.40;;;6.70;;
16468;SDS011;8345;50.902;6.956;2023-12-20T00:17:00;7.63;;;7.03;;
16468;SDS011;8345;50.902;6.956;2023-12-20T00:19:29;7.60;;;6.90;;
16468;SDS011;8345;50.902;6.956;2023-12-20T00:21:56;7.53;;;6.87;;
16468;SDS011;8345;50.902;6.956;2023-12-20T00:24:24;7.60;;;6.90;;
16468;SDS011;8345;50.902;6.956;2023-12-20T00:26:51;7.47;;;6.87;;
16468;SDS011;8345;50.902;6.956;2023-12-20T00:29:18;7.73;;;6.83;;
16468;SDS011;8345;50.902;6.956;2023-12-20T00:31:46;8.67;;;7.87;;
16468;SDS011;8345;50.902;6.956;2023-12-20T00:34:13;8.00;;;7.30;;
16468;SDS011;8345;50.902;6.956;2023-12-20T00:36:41;7.37;;;6.67;;
16468;SDS011;8345;50.902;6.956;2023-12-20T00:39:08;7.83;;;7.17;;
16468;SDS011;8345;50.902;6.956;2023-12-20T00:41:36;7.57;;;6.83;;
16468;SDS011;8345;50.902;6.956;2023-12-20T00:44:03;8.00;;;6.97;;
16468;SDS011;8345;50.902;6.956;2023-12-20T00:46:30;6.90;;;6.30;;
16468;SDS011;8345;50.902;6.956;2023-12-20T00:48:58;7.63;;;6.93;;
16468;SDS011;8345;50.902;6.956;2023-12-20T00:51:25;7.30;;;6.60;;
16468;SDS011;8345;50.902;6.956;2023-12-20T00:53:53;8.37;;;7.40;;
16468;SDS011;8345;50.902;6.956;2023-12-20T00:56:20;7.30;;;6.47;;
16468;SDS011;8345;50.902;6.956;2023-12-20T00:58:48;7.07;;;6.47;;
16468;SDS011;8345;50.902;6.956;2023-12-20T01:01:15;6.67;;;6.07;;
16468;SDS011;8345;50.902;6.956;2023-12-20T01:03:42;6.43;;;5.83;;
16468;SDS011;8345;50.902;6.956;2023-12-20T01:06:09;6.27;;;5.63;;
16468;SDS011;8345;50.902;6.956;2023-12-20T01:08:37;7.03;;;5.60;;
16468;SDS011;8345;50.902;6.956;2023-12-20T01:11:05;6.07;;;5.47;;
16468;SDS011;8345;50.902;6.956;2023-12-20T01:13:33;6.43;;;5.10;;
16468;SDS011;8345;50.902;6.956;2023-12-20T01:16:00;6.43;;;5.67;;
16468;SDS011;8345;50.902;6.956;2023-12-20T01:18:27;6.60;;;5.80;;
16468;SDS011;8345;50.902;6.956;2023-12-20T01:20:55;5.73;;;5.17;;
16468;SDS011;8345;50.902;6.956;2023-12-20T01:23:22;5.80;;;5.00;;
16468;SDS011;8345;50.902;6.956;2023-12-20T01:25:49;7.17;;;5.60;;
16468;SDS011;8345;50.902;6.956;2023-12-20T01:28:17;7.63;;;5.70;;
16468;SDS011;8345;50.902;6.956;2023-12-20T01:30:45;7.53;;;6.13;;
16468;SDS011;8345;50.902;6.956;2023-12-20T01:33:12;10.17;;;6.80;;
16468;SDS011;8345;50.902;6.956;2023-12-20T01:35:39;11.03;;;9.50;;
16468;SDS011;8345;50.902;6.956;2023-12-20T01:38:06;15.93;;;12.93;;
16468;SDS011;8345;50.902;6.956;2023-12-20T01:40:33;16.57;;;14.73;;
16468;SDS011;8345;50.902;6.956;2023-12-20T01:43:01;15.50;;;13.83;;
16468;SDS011;8345;50.902;6.956;2023-12-20T01:45:30;15.80;;;13.10;;
16468;SDS011;8345;50.902;6.956;2023-12-20T01:47:57;16.30;;;13.27;;
16468;SDS011;8345;50.902;6.956;2023-12-20T01:50:26;15.67;;;14.07;;
16468;SDS011;8345;50.902;6.956;2023-12-20T01:52:54;18.73;;;12.77;;
16468;SDS011;8345;50.902;6.956;2023-12-20T01:55:22;12.87;;;10.90;;
16468;SDS011;8345;50.902;6.956;2023-12-20T01:57:50;13.23;;;10.90;;
16468;SDS011;8345;50.902;6.956;2023-12-20T02:00:18;10.87;;;9.57;;
16468;SDS011;8345;50.902;6.956;2023-12-20T02:02:49;12.37;;;9.30;;
16468;SDS011;8345;50.902;6.956;2023-12-20T02:05:17;11.43;;;8.13;;
16468;SDS011;8345;50.902;6.956;2023-12-20T02:07:45;9.03;;;8.13;;
16468;SDS011;8345;50.902;6.956;2023-12-20T02:10:12;9.23;;;7.27;;
16468;SDS011;8345;50.902;6.956;2023-12-20T02:12:39;8.60;;;6.43;;
16468;SDS011;8345;50.902;6.956;2023-12-20T02:15:07;10.30;;;6.27;;
16468;SDS011;8345;50.902;6.956;2023-12-20T02:17:34;10.30;;;6.37;;
16468;SDS011;8345;50.902;6.956;2023-12-20T02:20:02;6.90;;;5.97;;
16468;SDS011;8345;50.902;6.956;2023-12-20T02:22:32;10.70;;;5.90;;
16468;SDS011;8345;50.902;6.956;2023-12-20T02:24:59;7.83;;;5.40;;
16468;SDS011;8345;50.902;6.956;2023-12-20T02:27:26;10.47;;;5.20;;
16468;SDS011;8345;50.902;6.956;2023-12-20T02:29:54;7.77;;;5.37;;
16468;SDS011;8345;50.902;6.956;2023-12-20T02:32:21;7.90;;;4.83;;
16468;SDS011;8345;50.902;6.956;2023-12-20T02:34:51;7.63;;;4.50;;
16468;SDS011;8345;50.902;6.956;2023-12-20T02:37:18;13.50;;;4.80;;
16468;SDS011;8345;50.902;6.956;2023-12-20T02:39:47;7.83;;;3.90;;
16468;SDS011;8345;50.902;6.956;2023-12-20T02:42:14;13.77;;;3.93;;
16468;SDS011;8345;50.902;6.956;2023-12-20T02:44:41;10.40;;;3.90;;
16468;SDS011;8345;50.902;6.956;2023-12-20T02:47:08;9.27;;;3.70;;
16468;SDS011;8345;50.902;6.956;2023-12-20T02:49:36;10.37;;;3.80;;
16468;SDS011;8345;50.902;6.956;2023-12-20T02:52:03;8.53;;;3.57;;
16468;SDS011;8345;50.902;6.956;2023-12-20T02:54:33;10.20;;;4.27;;
16468;SDS011;8345;50.902;6.956;2023-12-20T02:57:01;12.10;;;3.53;;
16468;SDS011;8345;50.902;6.956;2023-12-20T02:59:29;10.07;;;3.27;;
16468;SDS011;8345;50.902;6.956;2023-12-20T03:01:56;8.40;;;3.73;;
16468;SDS011;8345;50.902;6.956;2023-12-20T03:04:23;8.37;;;2.70;;
16468;SDS011;8345;50.902;6.956;2023-12-20T03:06:50;9.87;;;2.93;;
16468;SDS011;8345;50.902;6.956;2023-12-20T03:09:17;7.00;;;2.90;;
16468;SDS011;8345;50.902;6.956;2023-12-20T03:11:44;8.37;;;3.40;;
16468;SDS011;8345;50.902;6.956;2023-12-20T03:14:13;8.93;;;3.10;;
16468;SDS011;8345;50.902;6.956;2023-12-20T03:16:40;7.43;;;2.33;;
16468;SDS011;8345;50.902;6.956;2023-12-20T03:19:07;9.97;;;2.43;;
16468;SDS011;8345;50.902;6.956;2023-12-20T03:21:34;9.20;;;3.03;;
16468;SDS011;8345;50.902;6.956;2023-12-20T03:24:02;5.37;;;2.33;;
16468;SDS011;8345;50.902;6.956;2023-12-20T03:26:29;8.30;;;2.20;;
16468;SDS011;8345;50.902;6.956;2023-12-20T03:28:56;9.53;;;3.00;;
16468;SDS011;8345;50.902;6.956;2023-12-20T03:31:25;9.27;;;3.43;;
16468;SDS011;8345;50.902;6.956;2023-12-20T03:33:52;9.50;;;2.83;;
16468;SDS011;8345;50.902;6.956;2023-12-20T03:36:19;9.53;;;3.00;;
16468;SDS011;8345;50.902;6.956;2023-12-20T03:38:46;7.70;;;3.57;;
16468;SDS011;8345;50.902;6.956;2023-12-20T03:41:13;12.43;;;3.27;;
16468;SDS011;8345;50.902;6.956;2023-12-20T03:43:40;11.17;;;3.20;;
16468;SDS011;8345;50.902;6.956;2023-12-20T03:46:08;13.10;;;3.77;;
16468;SDS011;8345;50.902;6.956;2023-12-20T03:48:36;9.30;;;3.33;;
16468;SDS011;8345;50.902;6.956;2023-12-20T03:51:03;11.60;;;3.50;;
16468;SDS011;8345;50.902;6.956;2023-12-20T03:53:31;7.67;;;3.83;;
16468;SDS011;8345;50.902;6.956;2023-12-20T03:55:58;9.97;;;3.77;;
16468;SDS011;8345;50.902;6.956;2023-12-20T03:58:26;11.50;;;3.70;;
16468;SDS011;8345;50.902;6.956;2023-12-20T04:00:53;8.83;;;2.77;;
16468;SDS011;8345;50.902;6.956;2023-12-20T04:03:20;12.20;;;3.93;;
16468;SDS011;8345;50.902;6.956;2023-12-20T04:05:49;11.33;;;4.27;;
16468;SDS011;8345;50.902;6.956;2023-12-20T04:08:16;11.17;;;3.57;;
16468;SDS011;8345;50.902;6.956;2023-12-20T04:10:43;11.43;;;3.43;;
16468;SDS011;8345;50.902;6.956;2023-12-20T04:13:10;10.33;;;4.13;;
16468;SDS011;8345;50.902;6.956;2023-12-20T04:15:37;9.50;;;4.03;;
16468;SDS011;8345;50.902;6.956;2023-12-20T04:18:05;11.83;;;4.20;;
16468;SDS011;8345;50.902;6.956;2023-12-20T04:20:32;9.63;;;4.47;;
16468;SDS011;8345;50.902;6.956;2023-12-20T04:23:00;11.00;;;4.27;;
16468;SDS011;8345;50.902;6.956;2023-12-20T04:25:28;12.83;;;4.47;;
16468;SDS011;8345;50.902;6.956;2023-12-20T04:27:55;10.73;;;5.10;;
16468;SDS011;8345;50.902;6.956;2023-12-20T04:30:22;12.70;;;4.77;;
16468;SDS011;8345;50.902;6.956;2023-12-20T04:32:49;17.60;;;6.30;;
16468;SDS011;8345;50.902;6.956;2023-12-20T04:35:16;13.97;;;5.30;;
16468;SDS011;8345;50.902;6.956;2023-12-20T04:37:43;9.63;;;4.80;;
16468;SDS011;8345;50.902;6.956;2023-12-20T04:40:12;14.37;;;5.23;;
16468;SDS011;8345;50.902;6.956;2023-12-20T04:42:39;11.50;;;6.17;;
16468;SDS011;8345;50.902;6.956;2023-12-20T04:45:07;12.83;;;5.33;;
16468;SDS011;8345;50.902;6.956;2023-12-20T04:47:34;11.93;;;5.43;;
16468;SDS011;8345;50.902;6.956;2023-12-20T04:50:01;13.80;;;5.63;;
16468;SDS011;8345;50.902;6.956;2023-12-20T04:52:29;13.73;;;5.93;;
16468;SDS011;8345;50.902;6.956;2023-12-20T04:54:56;13.60;;;5.70;;
16468;SDS011;8345;50.902;6.956;2023-12-20T04:57:25;12.13;;;5.23;;
16468;SDS011;8345;50.902;6.956;2023-12-20T04:59:53;7.80;;;4.80;;
16468;SDS011;8345;50.902;6.956;2023-12-20T05:02:20;11.43;;;4.63;;
16468;SDS011;8345;50.902;6.956;2023-12-20T05:04:47;12.13;;;5.30;;
16468;SDS011;8345;50.902;6.956;2023-12-20T05:07:14;10.67;;;4.73;;
16468;SDS011;8345;50.902;6.956;2023-12-20T05:09:41;12.20;;;4.17;;
16468;SDS011;8345;50.902;6.956;2023-12-20T05:12:08;13.20;;;4.27;;
16468;SDS011;8345;50.902;6.956;2023-12-20T05:14:37;10.60;;;4.23;;
16468;SDS011;8345;50.902;6.956;2023-12-20T05:17:04;7.77;;;4.00;;
16468;SDS011;8345;50.902;6.956;2023-12-20T05:19:31;10.80;;;4.53;;
16468;SDS011;8345;50.902;6.956;2023-12-20T05:22:00;8.37;;;4.10;;
16468;SDS011;8345;50.902;6.956;2023-12-20T05:24:27;9.67;;;4.70;;
16468;SDS011;8345;50.902;6.956;2023-12-20T05:26:54;11.13;;;4.97;;
16468;SDS011;8345;50.902;6.956;2023-12-20T05:29:22;10.67;;;5.27;;
16468;SDS011;8345;50.902;6.956;2023-12-20T05:31:50;13.97;;;5.07;;
16468;SDS011;8345;50.902;6.956;2023-12-20T05:34:17;13.53;;;5.30;;
16468;SDS011;8345;50.902;6.956;2023-12-20T05:36:45;12.90;;;5.60;;
16468;SDS011;8345;50.902;6.956;2023-12-20T05:39:12;9.77;;;4.43;;
16468;SDS011;8345;50.902;6.956;2023-12-20T05:41:39;14.43;;;5.50;;
16468;SDS011;8345;50.902;6.956;2023-12-20T05:44:06;12.63;;;5.07;;
16468;SDS011;8345;50.902;6.956;2023-12-20T05:46:34;12.93;;;4.97;;
16468;SDS011;8345;50.902;6.956;2023-12-20T05:49:02;12.20;;;5.53;;
16468;SDS011;8345;50.902;6.956;2023-12-20T05:51:30;12.77;;;5.73;;
16468;SDS011;8345;50.902;6.956;2023-12-20T05:53:57;13.57;;;5.30;;
16468;SDS011;8345;50.902;6.956;2023-12-20T05:56:24;12.43;;;5.07;;
16468;SDS011;8345;50.902;6.956;2023-12-20T05:58:52;11.47;;;5.70;;
16468;SDS011;8345;50.902;6.956;2023-12-20T06:01:19;14.93;;;5.83;;
16468;SDS011;8345;50.902;6.956;2023-12-20T06:03:46;10.73;;;4.40;;
16468;SDS011;8345;50.902;6.956;2023-12-20T06:06:15;15.30;;;5.20;;
16468;SDS011;8345;50.902;6.956;2023-12-20T06:08:42;11.17;;;4.53;;
16468;SDS011;8345;50.902;6.956;2023-12-20T06:11:09;11.77;;;4.97;;
16468;SDS011;8345;50.902;6.956;2023-12-20T06:13:37;11.60;;;5.93;;
16468;SDS011;8345;50.902;6.956;2023-12-20T06:16:05;13.13;;;5.40;;
16468;SDS011;8345;50.902;6.956;2023-12-20T06:18:32;13.93;;;5.90;;
16468;SDS011;8345;50.902;6.956;2023-12-20T06:20:59;15.77;;;5.90;;
16468;SDS011;8345;50.902;6.956;2023-12-20T06:23:28;13.57;;;5.83;;
16468;SDS011;8345;50.902;6.956;2023-12-20T06:25:55;11.13;;;5.13;;
16468;SDS011;8345;50.902;6.956;2023-12-20T06:28:23;13.83;;;4.83;;
16468;SDS011;8345;50.902;6.956;2023-12-20T06:30:50;12.87;;;5.47;;
16468;SDS011;8345;50.902;6.956;2023-12-20T06:33:19;12.17;;;5.00;;
16468;SDS011;8345;50.902;6.956;2023-12-20T06:35:47;14.50;;;4.87;;
16468;SDS011;8345;50.902;6.956;2023-12-20T06:38:14;19.90;;;5.63;;
16468;SDS011;8345;50.902;6.956;2023-12-20T06:40:43;13.60;;;4.80;;
16468;SDS011;8345;50.902;6.956;2023-12-20T06:43:10;16.23;;;5.23;;
16468;SDS011;8345;50.902;6.956;2023-12-20T06:45:38;13.37;;;4.80;;
16468;SDS011;8345;50.902;6.956;2023-12-20T06:48:06;10.90;;;5.13;;
16468;SDS011;8345;50.902;6.956;2023-12-20T06:50:33;17.43;;;4.60;;
16468;SDS011;8345;50.902;6.956;2023-12-20T06:53:04;15.37;;;5.03;;
16468;SDS011;8345;50.902;6.956;2023-12-20T06:55:32;13.10;;;5.00;;
16468;SDS011;8345;50.902;6.956;2023-12-20T06:58:02;15.27;;;4.50;;
16468;SDS011;8345;50.902;6.956;2023-12-20T07:00:29;11.80;;;4.70;;
16468;SDS011;8345;50.902;6.956;2023-12-20T07:02:57;12.17;;;4.20;;
16468;SDS011;8345;50.902;6.956;2023-12-20T07:05:24;12.60;;;4.30;;
16468;SDS011;8345;50.902;6.956;2023-12-20T07:07:51;14.60;;;4.27;;
16468;SDS011;8345;50.902;6.956;2023-12-20T07:10:19;13.17;;;4.07;;
16468;SDS011;8345;50.902;6.956;2023-12-20T07:12:46;13.50;;;4.60;;
16468;SDS011;8345;50.902;6.956;2023-12-20T07:15:15;14.40;;;5.10;;
16468;SDS011;8345;50.902;6.956;2023-12-20T07:17:43;15.00;;;4.93;;
16468;SDS011;8345;50.902;6.956;2023-12-20T07:20:11;13.60;;;4.33;;
16468;SDS011;8345;50.902;6.956;2023-12-20T07:22:38;15.47;;;5.53;;
16468;SDS011;8345;50.902;6.956;2023-12-20T07:25:06;16.10;;;8.70;;
16468;SDS011;8345;50.902;6.956;2023-12-20T07:27:33;21.20;;;11.03;;
16468;SDS011;8345;50.902;6.956;2023-12-20T07:30:00;22.70;;;12.70;;
16468;SDS011;8345;50.902;6.956;2023-12-20T07:32:29;23.47;;;12.50;;
16468;SDS011;8345;50.902;6.956;2023-12-20T07:34:57;16.73;;;9.57;;
16468;SDS011;8345;50.902;6.956;2023-12-20T07:37:24;22.57;;;10.63;;
16468;SDS011;8345;50.902;6.956;2023-12-20T07:39:51;32.33;;;17.93;;
16468;SDS011;8345;50.902;6.956;2023-12-20T07:42:18;146.77;;;66.97;;
16468;SDS011;8345;50.902;6.956;2023-12-20T07:44:47;76.53;;;34.87;;
16468;SDS011;8345;50.902;6.956;2023-12-20T07:47:14;48.47;;;23.83;;
16468;SDS011;8345;50.902;6.956;2023-12-20T07:49:47;18.20;;;11.27;;
16468;SDS011;8345;50.902;6.956;2023-12-20T07:52:16;17.17;;;5.93;;
16468;SDS011;8345;50.902;6.956;2023-12-20T07:54:43;11.30;;;6.03;;
16468;SDS011;8345;50.902;6.956;2023-12-20T07:57:10;13.63;;;6.10;;
16468;SDS011;8345;50.902;6.956;2023-12-20T07:59:38;14.40;;;6.30;;
16468;SDS011;8345;50.902;6.956;2023-12-20T08:02:05;9.37;;;5.00;;
16468;SDS011;8345;50.902;6.956;2023-12-20T08:04:32;12.53;;;5.73;;
16468;SDS011;8345;50.902;6.956;2023-12-20T08:07:01;10.57;;;4.87;;
16468;SDS011;8345;50.902;6.956;2023-12-20T08:09:28;11.50;;;5.33;;
16468;SDS011;8345;50.902;6.956;2023-12-20T08:11:57;13.00;;;5.03;;
16468;SDS011;8345;50.902;6.956;2023-12-20T08:14:25;15.23;;;5.07;;
16468;SDS011;8345;50.902;6.956;2023-12-20T08:16:52;9.30;;;4.30;;
16468;SDS011;8345;50.902;6.956;2023-12-20T08:19:19;10.97;;;4.47;;
16468;SDS011;8345;50.902;6.956;2023-12-20T08:21:46;12.53;;;4.87;;
16468;SDS011;8345;50.902;6.956;2023-12-20T08:24:15;14.30;;;4.63;;
16468;SDS011;8345;50.902;6.956;2023-12-20T08:26:42;11.53;;;4.97;;
16468;SDS011;8345;50.902;6.956;2023-12-20T08:29:09;11.27;;;4.40;;
16468;SDS011;8345;50.902;6.956;2023-12-20T08:31:36;12.00;;;5.20;;
16468;SDS011;8345;50.902;6.956;2023-12-20T08:34:04;11.43;;;4.70;;
16468;SDS011;8345;50.902;6.956;2023-12-20T08:36:31;9.17;;;4.97;;
16468;SDS011;8345;50.902;6.956;2023-12-20T08:38:58;13.87;;;4.63;;
16468;SDS011;8345;50.902;6.956;2023-12-20T08:41:28;13.23;;;4.47;;
16468;SDS011;8345;50.902;6.956;2023-12-20T08:43:55;11.13;;;4.33;;
16468;SDS011;8345;50.902;6.956;2023-12-20T08:46:22;13.10;;;4.63;;
16468;SDS011;8345;50.902;6.956;2023-12-20T08:48:50;11.20;;;4.40;;
16468;SDS011;8345;50.902;6.956;2023-12-20T08:51:17;13.50;;;4.67;;
16468;SDS011;8345;50.902;6.956;2023-12-20T08:53:46;14.17;;;4.70;;
16468;SDS011;8345;50.902;6.956;2023-12-20T08:56:14;16.47;;;5.03;;
16468;SDS011;8345;50.902;6.956;2023-12-20T08:58:44;10.67;;;4.77;;
16468;SDS011;8345;50.902;6.956;2023-12-20T09:01:11;12.67;;;4.53;;
16468;SDS011;8345;50.902;6.956;2023-12-20T09:03:38;12.90;;;3.90;;
16468;SDS011;8345;50.902;6.956;2023-12-20T09:06:06;12.33;;;4.57;;
16468;SDS011;8345;50.902;6.956;2023-12-20T09:08:33;11.67;;;4.37;;
16468;SDS011;8345;50.902;6.956;2023-12-20T09:11:00;9.03;;;3.90;;
16468;SDS011;8345;50.902;6.956;2023-12-20T09:13:27;11.40;;;5.30;;
16468;SDS011;8345;50.902;6.956;2023-12-20T09:15:58;11.57;;;3.60;;
16468;SDS011;8345;50.902;6.956;2023-12-20T09:18:25;10.30;;;4.17;;
16468;SDS011;8345;50.902;6.956;2023-12-20T09:20:52;8.80;;;3.67;;
16468;SDS011;8345;50.902;6.956;2023-12-20T09:23:20;9.77;;;3.57;;
16468;SDS011;8345;50.902;6.956;2023-12-20T09:25:47;11.80;;;3.93;;
16468;SDS011;8345;50.902;6.956;2023-12-20T09:28:14;13.27;;;4.13;;
16468;SDS011;8345;50.902;6.956;2023-12-20T09:30:42;8.43;;;3.53;;
16468;SDS011;8345;50.902;6.956;2023-12-20T09:33:12;13.43;;;4.40;;
16468;SDS011;8345;50.902;6.956;2023-12-20T09:35:41;11.73;;;4.00;;
16468;SDS011;8345;50.902;6.956;2023-12-20T09:38:09;12.77;;;4.07;;
16468;SDS011;8345;50.902;6.956;2023-12-20T09:40:37;10.43;;;3.97;;
16468;SDS011;8345;50.902;6.956;2023-12-20T09:43:08;12.30;;;4.10;;
16468;SDS011;8345;50.902;6.956;2023-12-20T09:45:37;9.40;;;3.87;;
16468;SDS011;8345;50.902;6.956;2023-12-20T09:48:06;16.60;;;4.60;;
16468;SDS011;8345;50.902;6.956;2023-12-20T09:50:35;9.20;;;3.67;;
16468;SDS011;8345;50.902;6.956;2023-12-20T09:53:03;14.03;;;3.83;;
16468;SDS011;8345;50.902;6.956;2023-12-20T09:55:34;13.40;;;4.10;;
16468;SDS011;8345;50.902;6.956;2023-12-20T09:58:02;11.87;;;3.73;;
16468;SDS011;8345;50.902;6.956;2023-12-20T10:00:31;8.73;;;4.33;;
16468;SDS011;8345;50.902;6.956;2023-12-20T10:02:58;11.33;;;3.87;;
16468;SDS011;8345;50.902;6.956;2023-12-20T10:05:26;12.70;;;3.73;;
16468;SDS011;8345;50.902;6.956;2023-12-20T10:07:55;12.73;;;4.40;;
16468;SDS011;8345;50.902;6.956;2023-12-20T10:10:22;13.20;;;3.70;;
16468;SDS011;8345;50.902;6.956;2023-12-20T10:15:32;11.10;;;3.93;;
16468;SDS011;8345;50.902;6.956;2023-12-20T10:17:59;14.63;;;4.30;;
16468;SDS011;8345;50.902;6.956;2023-12-20T10:20:27;10.40;;;3.20;;
16468;SDS011;8345;50.902;6.956;2023-12-20T10:22:56;7.63;;;3.47;;
16468;SDS011;8345;50.902;6.956;2023-12-20T10:25:24;14.17;;;3.43;;
16468;SDS011;8345;50.902;6.956;2023-12-20T10:30:34;12.87;;;3.50;;
16468;SDS011;8345;50.902;6.956;2023-12-20T10:33:01;9.33;;;2.93;;
16468;SDS011;8345;50.902;6.956;2023-12-20T10:35:28;10.93;;;3.33;;
16468;SDS011;8345;50.902;6.956;2023-12-20T10:37:57;10.63;;;3.47;;
16468;SDS011;8345;50.902;6.956;2023-12-20T10:40:25;10.13;;;3.30;;
16468;SDS011;8345;50.902;6.956;2023-12-20T10:42:55;11.07;;;3.50;;
16468;SDS011;8345;50.902;6.956;2023-12-20T10:45:23;10.33;;;3.70;;
16468;SDS011;8345;50.902;6.956;2023-12-20T10:47:50;14.47;;;4.03;;
16468;SDS011;8345;50.902;6.956;2023-12-20T10:50:18;9.70;;;3.43;;
16468;SDS011;8345;50.902;6.956;2023-12-20T10:52:46;9.53;;;3.23;;
16468;SDS011;8345;50.902;6.956;2023-12-20T10:55:15;8.50;;;3.40;;
16468;SDS011;8345;50.902;6.956;2023-12-20T10:57:42;9.27;;;3.23;;
16468;SDS011;8345;50.902;6.956;2023-12-20T11:00:16;12.40;;;3.50;;
16468;SDS011;8345;50.902;6.956;2023-12-20T11:02:44;9.33;;;3.50;;
16468;SDS011;8345;50.902;6.956;2023-12-20T11:05:19;10.23;;;3.43;;
16468;SDS011;8345;50.902;6.956;2023-12-20T11:07:50;11.03;;;3.43;;
16468;SDS011;8345;50.902;6.956;2023-12-20T11:10:25;12.13;;;3.10;;
16468;SDS011;8345;50.902;6.956;2023-12-20T11:12:53;9.93;;;3.00;;
16468;SDS011;8345;50.902;6.956;2023-12-20T11:15:21;8.33;;;3.23;;
16468;SDS011;8345;50.902;6.956;2023-12-20T11:17:54;10.33;;;3.00;;
16468;SDS011;8345;50.902;6.956;2023-12-20T11:20:22;9.83;;;3.10;;
16468;SDS011;8345;50.902;6.956;2023-12-20T11:22:52;7.27;;;2.87;;
16468;SDS011;8345;50.902;6.956;2023-12-20T11:25:20;11.43;;;3.97;;
16468;SDS011;8345;50.902;6.956;2023-12-20T11:30:31;10.77;;;3.77;;
16468;SDS011;8345;50.902;6.956;2023-12-20T11:33:07;11.60;;;3.40;;
16468;SDS011;8345;50.902;6.956;2023-12-20T11:35:34;10.90;;;3.27;;
16468;SDS011;8345;50.902;6.956;2023-12-20T11:38:02;14.33;;;3.37;;
16468;SDS011;8345;50.902;6.956;2023-12-20T11:40:30;8.03;;;3.70;;
16468;SDS011;8345;50.902;6.956;2023-12-20T11:43:02;9.53;;;3.40;;
16468;SDS011;8345;50.902;6.956;2023-12-20T11:45:29;12.87;;;3.77;;
16468;SDS011;8345;50.902;6.956;2023-12-20T11:47:58;11.63;;;3.40;;
16468;SDS011;8345;50.902;6.956;2023-12-20T11:50:25;11.57;;;3.37;;
16468;SDS011;8345;50.902;6.956;2023-12-20T11:52:53;11.40;;;3.60;;
16468;SDS011;8345;50.902;6.956;2023-12-20T11:55:20;10.43;;;3.13;;
16468;SDS011;8345;50.902;6.956;2023-12-20T11:57:49;10.10;;;3.10;;
16468;SDS011;8345;50.902;6.956;2023-12-20T12:00:17;7.93;;;3.03;;
16468;SDS011;8345;50.902;6.956;2023-12-20T12:02:54;7.90;;;2.87;;
16468;SDS011;8345;50.902;6.956;2023-12-20T12:05:23;8.20;;;2.87;;
16468;SDS011;8345;50.902;6.956;2023-12-20T12:07:50;10.23;;;2.77;;
16468;SDS011;8345;50.902;6.956;2023-12-20T12:10:18;11.07;;;3.50;;
16468;SDS011;8345;50.902;6.956;2023-12-20T12:12:45;12.47;;;3.60;;
16468;SDS011;8345;50.902;6.956;2023-12-20T12:15:13;10.83;;;3.17;;
16468;SDS011;8345;50.902;6.956;2023-12-20T12:17:41;11.90;;;3.47;;
16468;SDS011;8345;50.902;6.956;2023-12-20T12:20:08;8.03;;;3.20;;
16468;SDS011;8345;50.902;6.956;2023-12-20T12:22:38;8.77;;;3.47;;
16468;SDS011;8345;50.902;6.956;2023-12-20T12:25:12;9.43;;;3.73;;
16468;SDS011;8345;50.902;6.956;2023-12-20T12:27:40;9.30;;;2.83;;
16468;SDS011;8345;50.902;6.956;2023-12-20T12:30:08;10.50;;;3.33;;
16468;SDS011;8345;50.902;6.956;2023-12-20T12:32:37;9.50;;;2.93;;
16468;SDS011;8345;50.902;6.956;2023-12-20T12:35:05;9.10;;;3.23;;
16468;SDS011;8345;50.902;6.956;2023-12-20T12:37:33;8.60;;;3.67;;
16468;SDS011;8345;50.902;6.956;2023-12-20T12:40:03;13.63;;;3.60;;
16468;SDS011;8345;50.902;6.956;2023-12-20T12:42:31;8.47;;;3.30;;
16468;SDS011;8345;50.902;6.956;2023-12-20T12:44:58;6.63;;;3.30;;
16468;SDS011;8345;50.902;6.956;2023-12-20T12:47:25;11.33;;;3.83;;
16468;SDS011;8345;50.902;6.956;2023-12-20T12:49:52;9.40;;;3.67;;
16468;SDS011;8345;50.902;6.956;2023-12-20T12:52:19;6.70;;;3.50;;
16468;SDS011;8345;50.902;6.956;2023-12-20T12:54:47;8.03;;;3.40;;
16468;SDS011;8345;50.902;6.956;2023-12-20T12:57:16;11.40;;;3.70;;
16468;SDS011;8345;50.902;6.956;2023-12-20T12:59:44;8.67;;;3.80;;
16468;SDS011;8345;50.902;6.956;2023-12-20T13:02:12;9.33;;;4.30;;
16468;SDS011;8345;50.902;6.956;2023-12-20T13:04:39;9.30;;;4.13;;
16468;SDS011;8345;50.902;6.956;2023-12-20T13:07:06;10.63;;;3.87;;
16468;SDS011;8345;50.902;6.956;2023-12-20T13:09:35;8.57;;;3.70;;
16468;SDS011;8345;50.902;6.956;2023-12-20T13:12:04;10.13;;;4.53;;
16468;SDS011;8345;50.902;6.956;2023-12-20T13:14:33;9.03;;;3.90;;
16468;SDS011;8345;50.902;6.956;2023-12-20T13:17:02;11.33;;;4.07;;
16468;SDS011;8345;50.902;6.956;2023-12-20T13:19:29;8.87;;;4.20;;
16468;SDS011;8345;50.902;6.956;2023-12-20T13:21:57;11.13;;;4.07;;
16468;SDS011;8345;50.902;6.956;2023-12-20T13:24:24;13.17;;;4.60;;
16468;SDS011;8345;50.902;6.956;2023-12-20T13:26:51;10.57;;;4.00;;
16468;SDS011;8345;50.902;6.956;2023-12-20T13:29:18;10.87;;;4.40;;
16468;SDS011;8345;50.902;6.956;2023-12-20T13:31:48;9.90;;;4.10;;
16468;SDS011;8345;50.902;6.956;2023-12-20T13:34:16;9.17;;;3.97;;
16468;SDS011;8345;50.902;6.956;2023-12-20T13:36:43;8.70;;;4.03;;
16468;SDS011;8345;50.902;6.956;2023-12-20T13:39:12;9.17;;;4.23;;
16468;SDS011;8345;50.902;6.956;2023-12-20T13:41:39;11.50;;;3.87;;
16468;SDS011;8345;50.902;6.956;2023-12-20T13:44:07;5.87;;;3.53;;
16468;SDS011;8345;50.902;6.956;2023-12-20T13:46:34;11.23;;;4.37;;
16468;SDS011;8345;50.902;6.956;2023-12-20T13:49:03;9.57;;;3.97;;
16468;SDS011;8345;50.902;6.956;2023-12-20T13:51:31;11.47;;;3.90;;
16468;SDS011;8345;50.902;6.956;2023-12-20T13:53:58;8.07;;;3.70;;
16468;SDS011;8345;50.902;6.956;2023-12-20T13:56:25;9.93;;;3.87;;
16468;SDS011;8345;50.902;6.956;2023-12-20T13:58:52;9.37;;;3.70;;
16468;SDS011;8345;50.902;6.956;2023-12-20T14:01:19;7.57;;;3.47;;
16468;SDS011;8345;50.902;6.956;2023-12-20T14:03:47;12.00;;;4.03;;
16468;SDS011;8345;50.902;6.956;2023-12-20T14:06:15;5.60;;;2.90;;
16468;SDS011;8345;50.902;6.956;2023-12-20T14:08:43;9.17;;;3.37;;
16468;SDS011;8345;50.902;6.956;2023-12-20T14:11:10;9.67;;;3.53;;
16468;SDS011;8345;50.902;6.956;2023-12-20T14:13:37;8.00;;;3.33;;
16468;SDS011;8345;50.902;6.956;2023-12-20T14:16:04;9.90;;;3.60;;
16468;SDS011;8345;50.902;6.956;2023-12-20T14:18:32;9.07;;;3.63;;
16468;SDS011;8345;50.902;6.956;2023-12-20T14:20:59;9.73;;;3.50;;
16468;SDS011;8345;50.902;6.956;2023-12-20T14:23:27;7.93;;;3.17;;
16468;SDS011;8345;50.902;6.956;2023-12-20T14:25:55;8.00;;;3.17;;
16468;SDS011;8345;50.902;6.956;2023-12-20T14:28:23;7.87;;;2.93;;
16468;SDS011;8345;50.902;6.956;2023-12-20T14:30:50;11.67;;;3.10;;
16468;SDS011;8345;50.902;6.956;2023-12-20T14:33:18;6.80;;;3.33;;
16468;SDS011;8345;50.902;6.956;2023-12-20T14:35:46;8.03;;;3.50;;
16468;SDS011;8345;50.902;6.956;2023-12-20T14:38:13;5.60;;;2.90;;
16468;SDS011;8345;50.902;6.956;2023-12-20T14:40:42;5.30;;;3.23;;
16468;SDS011;8345;50.902;6.956;2023-12-20T14:43:09;5.43;;;3.03;;
16468;SDS011;8345;50.902;6.956;2023-12-20T14:45:37;5.23;;;3.23;;
16468;SDS011;8345;50.902;6.956;2023-12-20T14:48:04;8.73;;;3.43;;
16468;SDS011;8345;50.902;6.956;2023-12-20T14:50:31;7.53;;;3.20;;
16468;SDS011;8345;50.902;6.956;2023-12-20T14:52:59;5.17;;;3.10;;
16468;SDS011;8345;50.902;6.956;2023-12-20T14:55:26;6.20;;;3.10;;
16468;SDS011;8345;50.902;6.956;2023-12-20T14:57:56;9.30;;;3.00;;
16468;SDS011;8345;50.902;6.956;2023-12-20T15:00:23;7.27;;;3.30;;
16468;SDS011;8345;50.902;6.956;2023-12-20T15:02:50;9.13;;;3.00;;
16468;SDS011;8345;50.902;6.956;2023-12-20T15:05:19;7.47;;;3.33;;